Check out our new BloomSky Weather System.

Active alerts


No alerts


Thunder radar  blitzortung!


Rain radar more information rain snow radar


Visit our other weather sites:

Template documentation
and downloads

And another site



Weather Underground History page Text

Daily Summary for July 24, 2017 Units:  English    Metric   Both
« Previous Day
Next Day »
Daily Weekly Monthly Yearly Custom
  High: Low: Average:
Temperature: TemperatureF °F 79.2 °F 86 °F
Dew Point: DewpointF °F 68.2 °F 75.9 °F
Humidity: Humidity % 43 % 74 %
Wind Speed: WindSpeedMPH mph 0.0 mph 2.8 mph
Wind Gust: WindSpeedGustMPH mph - -
Wind:- - South
Pressure: PressureIn in 29.90 in -
Precipitation: 0.00 in    
Historical Graphs
 
 
Tabular Data for July 24, 2017
Time Temperature Dew Point Pressure Wind Wind Speed Wind Gust Humidity Rainfall Rate (Hourly)
TemperatureF °F DewpointF °F PressureIn in Calm     Humidity % HourlyPrecipIn in
00:01 82.2 °F 76.8 °F 29.90 in South 6.0 mph 9.0 mph 84 % 0.00 in
00:06 82.2 °F 76.8 °F 29.90 in SSW 2.0 mph 9.0 mph 84 % 0.00 in
00:11 82.2 °F 76.8 °F 29.90 in South 2.0 mph 9.0 mph 84 % 0.00 in
00:16 82.0 °F 76.6 °F 29.91 in SSW 2.0 mph 9.0 mph 84 % 0.00 in
00:21 82.0 °F 76.6 °F 29.91 in Calm   9.0 mph 84 % 0.00 in
00:26 82.0 °F 77.0 °F 29.91 in SE 1.0 mph 9.0 mph 85 % 0.00 in
00:31 81.9 °F 76.8 °F 29.91 in SSW 2.0 mph 9.0 mph 85 % 0.00 in
00:36 81.9 °F 76.8 °F 29.91 in SE 1.0 mph 8.0 mph 85 % 0.00 in
00:41 81.9 °F 76.8 °F 29.91 in South 3.0 mph 8.0 mph 85 % 0.00 in
00:46 81.9 °F 77.2 °F 29.91 in South 3.0 mph 8.0 mph 86 % 0.00 in
00:51 81.9 °F 77.2 °F 29.92 in ESE 5.0 mph 8.0 mph 86 % 0.00 in
00:56 81.9 °F 77.2 °F 29.92 in SSW 2.0 mph 8.0 mph 86 % 0.00 in
01:01 81.7 °F 77.0 °F 29.92 in SSE 3.0 mph 6.0 mph 86 % 0.00 in
01:06 81.7 °F 77.0 °F 29.91 in SSW 6.0 mph 6.0 mph 86 % 0.00 in
01:11 81.7 °F 77.4 °F 29.91 in South 2.0 mph 6.0 mph 87 % 0.00 in
01:16 81.7 °F 77.4 °F 29.91 in South 3.0 mph 6.0 mph 87 % 0.00 in
01:21 81.5 °F 77.2 °F 29.91 in SW 2.0 mph 6.0 mph 87 % 0.00 in
01:26 81.7 °F 77.4 °F 29.91 in SSE 1.0 mph 7.0 mph 87 % 0.00 in
01:32 81.5 °F 77.2 °F 29.91 in South 2.0 mph 8.0 mph 87 % 0.00 in
01:37 81.5 °F 77.2 °F 29.91 in SE 2.0 mph 8.0 mph 87 % 0.00 in
01:42 81.5 °F 77.5 °F 29.91 in South 2.0 mph 8.0 mph 88 % 0.00 in
01:47 81.5 °F 77.5 °F 29.91 in SSE 4.0 mph 6.0 mph 88 % 0.00 in
01:52 81.5 °F 77.5 °F 29.91 in SSE 4.0 mph 6.0 mph 88 % 0.00 in
01:57 81.5 °F 77.5 °F 29.91 in SE 1.0 mph 7.0 mph 88 % 0.00 in
02:02 81.5 °F 77.5 °F 29.92 in SSE 2.0 mph 8.0 mph 88 % 0.00 in
02:07 81.5 °F 77.5 °F 29.91 in SW 4.0 mph 11.0 mph 88 % 0.00 in
02:12 81.5 °F 77.5 °F 29.91 in South 7.0 mph 11.0 mph 88 % 0.00 in
02:17 81.5 °F 77.5 °F 29.91 in SE 3.0 mph 11.0 mph 88 % 0.00 in
02:22 81.5 °F 77.5 °F 29.92 in SSW 4.0 mph 9.0 mph 88 % 0.00 in
02:32 81.3 °F 77.7 °F 29.92 in SSW 4.0 mph 8.0 mph 89 % 0.00 in
02:37 81.3 °F 77.7 °F 29.92 in Calm   6.0 mph 89 % 0.00 in
02:42 81.1 °F 77.5 °F 29.92 in SE 1.0 mph 5.0 mph 89 % 0.00 in
02:47 81.1 °F 77.5 °F 29.92 in SW 4.0 mph 6.0 mph 89 % 0.00 in
02:52 81.1 °F 77.5 °F 29.92 in SSE 1.0 mph 6.0 mph 89 % 0.00 in
02:57 81.1 °F 77.5 °F 29.92 in SSE 2.0 mph 6.0 mph 89 % 0.00 in
03:02 81.1 °F 77.5 °F 29.92 in South 2.0 mph 5.0 mph 89 % 0.00 in
03:07 81.0 °F 77.7 °F 29.93 in South 2.0 mph 6.0 mph 90 % 0.00 in
03:12 81.0 °F 77.7 °F 29.93 in South 2.0 mph 6.0 mph 90 % 0.00 in
03:17 81.0 °F 77.7 °F 29.93 in SSE 1.0 mph 6.0 mph 90 % 0.00 in
03:22 81.0 °F 77.7 °F 29.93 in South 2.0 mph 5.0 mph 90 % 0.00 in
03:27 81.1 °F 77.9 °F 29.93 in SE 1.0 mph 5.0 mph 90 % 0.00 in
03:32 81.1 °F 77.9 °F 29.93 in South 2.0 mph 5.0 mph 90 % 0.00 in
03:37 81.1 °F 77.9 °F 29.93 in SSW 2.0 mph 4.0 mph 90 % 0.00 in
03:42 81.1 °F 77.9 °F 29.92 in South 2.0 mph 4.0 mph 90 % 0.00 in
03:47 81.1 °F 77.9 °F 29.92 in SE 1.0 mph 4.0 mph 90 % 0.00 in
03:52 81.0 °F 77.7 °F 29.92 in South 4.0 mph 5.0 mph 90 % 0.00 in
03:57 81.0 °F 77.7 °F 29.91 in South 2.0 mph 6.0 mph 90 % 0.00 in
04:02 81.0 °F 77.7 °F 29.91 in SSE 3.0 mph 6.0 mph 90 % 0.00 in
04:07 80.8 °F 77.5 °F 29.91 in South 2.0 mph 6.0 mph 90 % 0.00 in
04:12 80.8 °F 77.5 °F 29.91 in South 2.0 mph 6.0 mph 90 % 0.00 in
04:17 80.8 °F 77.9 °F 29.91 in SSW 5.0 mph 6.0 mph 91 % 0.00 in
04:22 80.6 °F 77.7 °F 29.91 in SSW 2.0 mph 5.0 mph 91 % 0.00 in
04:27 80.4 °F 77.5 °F 29.91 in SSE 1.0 mph 7.0 mph 91 % 0.00 in
04:32 80.4 °F 77.5 °F 29.91 in South 1.0 mph 8.0 mph 91 % 0.00 in
04:37 80.4 °F 77.5 °F 29.91 in Calm   8.0 mph 91 % 0.00 in
04:42 80.2 °F 77.4 °F 29.91 in Calm   8.0 mph 91 % 0.00 in
04:47 80.2 °F 77.7 °F 29.91 in South 1.0 mph 6.0 mph 92 % 0.00 in
04:52 80.1 °F 77.5 °F 29.91 in SSW 3.0 mph 6.0 mph 92 % 0.00 in
04:57 80.1 °F 77.5 °F 29.91 in SSW 2.0 mph 4.0 mph 92 % 0.00 in
05:02 80.1 °F 77.5 °F 29.91 in SSW 5.0 mph 5.0 mph 92 % 0.00 in
05:07 80.1 °F 77.5 °F 29.91 in SSE 1.0 mph 5.0 mph 92 % 0.00 in
05:12 79.9 °F 77.4 °F 29.91 in South 2.0 mph 7.0 mph 92 % 0.00 in
05:17 79.9 °F 77.4 °F 29.91 in SSW 2.0 mph 7.0 mph 92 % 0.00 in
05:22 79.9 °F 77.7 °F 29.91 in Calm   7.0 mph 93 % 0.00 in
05:27 79.9 °F 77.7 °F 29.91 in South 2.0 mph 5.0 mph 93 % 0.00 in
05:32 79.9 °F 77.7 °F 29.91 in South 1.0 mph 4.0 mph 93 % 0.00 in
05:37 79.7 °F 77.5 °F 29.91 in SSE 1.0 mph 4.0 mph 93 % 0.00 in
05:42 79.7 °F 77.5 °F 29.92 in South 2.0 mph 4.0 mph 93 % 0.00 in
05:47 79.7 °F 77.5 °F 29.92 in SSW 2.0 mph 3.0 mph 93 % 0.00 in
05:52 79.5 °F 77.4 °F 29.92 in Calm   3.0 mph 93 % 0.00 in
05:57 79.5 °F 77.4 °F 29.92 in South 2.0 mph 3.0 mph 93 % 0.00 in
06:02 79.5 °F 77.4 °F 29.92 in South 1.0 mph 3.0 mph 93 % 0.00 in
06:07 79.5 °F 77.7 °F 29.92 in SSE 3.0 mph 4.0 mph 94 % 0.00 in
06:12 79.5 °F 77.7 °F 29.92 in South 1.0 mph 4.0 mph 94 % 0.00 in
06:17 79.5 °F 77.7 °F 29.93 in SSE 2.0 mph 6.0 mph 94 % 0.00 in
06:22 79.5 °F 77.7 °F 29.92 in South 3.0 mph 6.0 mph 94 % 0.00 in
06:27 79.3 °F 77.5 °F 29.93 in SSE 2.0 mph 6.0 mph 94 % 0.00 in
06:32 79.3 °F 77.5 °F 29.92 in SSW 1.0 mph 4.0 mph 94 % 0.00 in
06:37 79.3 °F 77.5 °F 29.93 in South 3.0 mph 4.0 mph 94 % 0.00 in
06:42 79.3 °F 77.5 °F 29.93 in SW 1.0 mph 4.0 mph 94 % 0.00 in
06:47 79.3 °F 77.5 °F 29.93 in SSW 1.0 mph 4.0 mph 94 % 0.00 in
06:52 79.3 °F 77.5 °F 29.93 in South 1.0 mph 4.0 mph 94 % 0.00 in
06:57 79.3 °F 77.5 °F 29.94 in Calm   4.0 mph 94 % 0.00 in
07:02 79.3 °F 77.5 °F 29.94 in Calm   4.0 mph 94 % 0.00 in
07:07 79.2 °F 77.4 °F 29.94 in Calm   4.0 mph 94 % 0.00 in
07:12 79.3 °F 77.5 °F 29.95 in Calm   2.0 mph 94 % 0.00 in
07:17 79.3 °F 77.7 °F 29.96 in Calm   2.0 mph 95 % 0.00 in
07:22 79.5 °F 77.9 °F 29.96 in Calm   2.0 mph 95 % 0.00 in
07:27 79.5 °F 77.9 °F 29.96 in Calm   2.0 mph 95 % 0.00 in
07:32 79.7 °F 77.9 °F 29.96 in Calm   1.0 mph 94 % 0.00 in
07:37 79.9 °F 78.1 °F 29.96 in SSE 1.0 mph 1.0 mph 94 % 0.00 in
07:42 79.9 °F 78.1 °F 29.96 in South 2.0 mph 2.0 mph 94 % 0.00 in
07:43 79.9 °F 78.1 °F 29.96 in Calm   2.0 mph 94 % 0.00 in
07:48 80.1 °F 78.3 °F 29.96 in South 2.0 mph 3.0 mph 94 % 0.00 in
07:53 80.1 °F 78.3 °F 29.96 in Calm   3.0 mph 94 % 0.00 in
07:58 80.2 °F 78.4 °F 29.96 in Calm   3.0 mph 94 % 0.00 in
08:03 80.4 °F 78.6 °F 29.96 in Calm   3.0 mph 94 % 0.00 in
08:05 80.4 °F 78.6 °F 29.96 in Calm   3.0 mph 94 % 0.00 in
08:10 80.8 °F 78.8 °F 29.97 in Calm   3.0 mph 94 % 0.00 in
08:15 80.8 °F 78.6 °F 29.97 in Calm   3.0 mph 93 % 0.00 in
08:20 81.0 °F 79.0 °F 29.97 in Calm   2.0 mph 94 % 0.00 in
08:25 81.1 °F 79.0 °F 29.97 in Calm   2.0 mph 93 % 0.00 in
08:30 81.3 °F 79.2 °F 29.97 in Calm   2.0 mph 93 % 0.00 in
08:35 81.3 °F 79.2 °F 29.97 in Calm   2.0 mph 93 % 0.00 in
08:40 81.7 °F 79.2 °F 29.98 in Calm   2.0 mph 92 % 0.00 in
08:45 81.7 °F 79.2 °F 29.98 in Calm   2.0 mph 92 % 0.00 in
08:50 81.9 °F 79.3 °F 29.98 in SSW 2.0 mph 3.0 mph 92 % 0.00 in
08:55 81.9 °F 79.0 °F 29.99 in Calm   3.0 mph 91 % 0.00 in
09:00 82.0 °F 79.2 °F 29.99 in Calm   3.0 mph 91 % 0.00 in
09:05 82.2 °F 79.3 °F 29.99 in Calm   3.0 mph 91 % 0.00 in
09:10 82.6 °F 79.7 °F 29.99 in SSE 1.0 mph 1.0 mph 91 % 0.00 in
09:15 82.8 °F 79.2 °F 29.99 in Calm   4.0 mph 89 % 0.00 in
09:17 82.8 °F 79.2 °F 29.99 in SSE 1.0 mph 4.0 mph 89 % 0.00 in
09:22 82.9 °F 79.3 °F 29.99 in Calm   4.0 mph 89 % 0.00 in
09:27 83.1 °F 79.5 °F 29.99 in SSW 1.0 mph 4.0 mph 89 % 0.00 in
09:32 83.1 °F 79.2 °F 29.99 in Calm   2.0 mph 88 % 0.00 in
09:37 83.5 °F 79.5 °F 29.99 in SSW 3.0 mph 3.0 mph 88 % 0.00 in
09:47 83.7 °F 79.3 °F 29.99 in SSE 1.0 mph 4.0 mph 87 % 0.00 in
09:52 83.8 °F 79.2 °F 29.99 in Calm   4.0 mph 86 % 0.00 in
09:57 84.0 °F 79.3 °F 29.99 in West 1.0 mph 4.0 mph 86 % 0.00 in
10:02 84.2 °F 79.2 °F 29.99 in SW 1.0 mph 4.0 mph 85 % 0.00 in
10:07 84.4 °F 79.3 °F 29.99 in Calm   3.0 mph 85 % 0.00 in
10:12 84.6 °F 79.5 °F 29.99 in Calm   3.0 mph 85 % 0.00 in
10:17 84.7 °F 79.3 °F 29.99 in Calm   3.0 mph 84 % 0.00 in
10:22 84.9 °F 79.2 °F 29.99 in ESE 1.0 mph 5.0 mph 83 % 0.00 in
10:27 85.3 °F 79.5 °F 29.99 in Calm   5.0 mph 83 % 0.00 in
10:32 85.6 °F 79.9 °F 29.99 in South 1.0 mph 5.0 mph 83 % 0.00 in
10:37 86.0 °F 80.2 °F 29.99 in SSW 1.0 mph 4.0 mph 83 % 0.00 in
10:42 86.2 °F 79.3 °F 30.00 in Calm   2.0 mph 80 % 0.00 in
10:47 86.5 °F 79.7 °F 30.00 in Calm   2.0 mph 80 % 0.00 in
10:52 87.1 °F 79.7 °F 30.00 in Calm   2.0 mph 79 % 0.00 in
10:57 87.3 °F 79.5 °F 30.00 in Calm   3.0 mph 78 % 0.00 in
11:03 87.4 °F 79.0 °F 30.00 in West 2.0 mph 3.0 mph 76 % 0.00 in
11:08 87.4 °F 79.3 °F 30.00 in Calm   3.0 mph 77 % 0.00 in
11:13 88.0 °F 80.2 °F 30.00 in Calm   3.0 mph 78 % 0.00 in
11:18 88.3 °F 79.9 °F 30.00 in WSW 1.0 mph 3.0 mph 76 % 0.00 in
11:23 88.2 °F 80.1 °F 30.00 in South 2.0 mph 4.0 mph 77 % 0.00 in
11:28 88.9 °F 80.2 °F 30.00 in NW 2.0 mph 4.0 mph 76 % 0.00 in
11:33 88.9 °F 79.5 °F 30.00 in NNW 2.0 mph 4.0 mph 74 % 0.00 in
11:38 89.1 °F 78.8 °F 30.00 in WSW 4.0 mph 5.0 mph 72 % 0.00 in
11:43 89.1 °F 80.1 °F 30.00 in Calm   7.0 mph 75 % 0.00 in
11:48 90.0 °F 81.0 °F 30.00 in Calm   7.0 mph 75 % 0.00 in
11:53 90.9 °F 79.3 °F 30.00 in NW 2.0 mph 7.0 mph 69 % 0.00 in
11:58 91.0 °F 79.9 °F 30.00 in NW 1.0 mph 4.0 mph 70 % 0.00 in
12:03 91.6 °F 79.0 °F 30.00 in South 5.0 mph 5.0 mph 67 % 0.00 in
12:08 91.6 °F 79.0 °F 30.00 in NNW 1.0 mph 6.0 mph 67 % 0.00 in
12:13 91.9 °F 80.8 °F 29.99 in South 3.0 mph 6.0 mph 70 % 0.00 in
12:18 92.7 °F 80.6 °F 29.99 in WNW 2.0 mph 6.0 mph 68 % 0.00 in
12:28 93.0 °F 79.9 °F 29.99 in SW 2.0 mph 5.0 mph 66 % 0.00 in
12:33 93.4 °F 80.2 °F 29.99 in SSE 3.0 mph 4.0 mph 66 % 0.00 in
12:38 93.6 °F 80.1 °F 29.99 in SSW 2.0 mph 4.0 mph 65 % 0.00 in
12:43 93.4 °F 79.3 °F 29.98 in SW 1.0 mph 6.0 mph 64 % 0.00 in
12:48 93.6 °F 77.5 °F 29.98 in SE 5.0 mph 9.0 mph 60 % 0.00 in
12:53 93.6 °F 78.6 °F 29.98 in SSW 2.0 mph 9.0 mph 62 % 0.00 in
12:58 93.9 °F 79.0 °F 29.98 in SSE 2.0 mph 9.0 mph 62 % 0.00 in
12:59 94.1 °F 78.6 °F 29.98 in South 5.0 mph 9.0 mph 61 % 0.00 in
13:04 93.4 °F 76.8 °F 29.98 in ESE 2.0 mph 8.0 mph 59 % 0.00 in
13:09 92.8 °F 77.4 °F 29.98 in South 3.0 mph 8.0 mph 61 % 0.00 in
13:14 92.8 °F 77.4 °F 29.98 in SSW 5.0 mph 8.0 mph 61 % 0.00 in
13:19 93.0 °F 77.0 °F 29.98 in ESE 3.0 mph 8.0 mph 60 % 0.00 in
13:24 93.0 °F 76.1 °F 29.98 in SE 4.0 mph 8.0 mph 58 % 0.00 in
13:29 92.8 °F 75.9 °F 29.97 in SE 6.0 mph 9.0 mph 58 % 0.00 in
13:34 93.4 °F 78.4 °F 29.97 in SW 1.0 mph 9.0 mph 62 % 0.00 in
13:39 93.4 °F 77.9 °F 29.97 in SW 1.0 mph 9.0 mph 61 % 0.00 in
13:44 93.6 °F 76.6 °F 29.97 in SSE 2.0 mph 9.0 mph 58 % 0.00 in
13:49 94.1 °F 78.1 °F 29.97 in SW 4.0 mph 9.0 mph 60 % 0.00 in
13:54 94.3 °F 76.1 °F 29.96 in SE 7.0 mph 9.0 mph 56 % 0.00 in
13:59 94.3 °F 75.6 °F 29.96 in SSE 6.0 mph 10.0 mph 55 % 0.00 in
14:04 94.5 °F 75.2 °F 29.96 in SSW 7.0 mph 10.0 mph 54 % 0.00 in
14:09 94.3 °F 75.0 °F 29.96 in SSE 6.0 mph 14.0 mph 54 % 0.00 in
14:14 94.1 °F 76.5 °F 29.96 in SSW 4.0 mph 14.0 mph 57 % 0.00 in
14:19 93.9 °F 75.7 °F 29.96 in SSE 6.0 mph 14.0 mph 56 % 0.00 in
14:24 93.6 °F 75.0 °F 29.96 in SSW 2.0 mph 11.0 mph 55 % 0.00 in
14:29 93.6 °F 74.5 °F 29.96 in South 6.0 mph 13.0 mph 54 % 0.00 in
14:34 93.7 °F 75.2 °F 29.95 in SSW 5.0 mph 13.0 mph 55 % 0.00 in
14:39 94.1 °F 75.9 °F 29.95 in SE 7.0 mph 13.0 mph 56 % 0.00 in
14:44 94.3 °F 75.0 °F 29.95 in SE 3.0 mph 11.0 mph 54 % 0.00 in
14:49 94.5 °F 76.3 °F 29.95 in SSW 5.0 mph 9.0 mph 56 % 0.00 in
14:54 94.3 °F 76.6 °F 29.94 in South 6.0 mph 8.0 mph 57 % 0.00 in
14:59 94.6 °F 75.9 °F 29.94 in South 11.0 mph 13.0 mph 55 % 0.00 in
15:04 95.0 °F 76.8 °F 29.94 in SSW 3.0 mph 13.0 mph 56 % 0.00 in
15:09 95.4 °F 75.0 °F 29.94 in SE 4.0 mph 13.0 mph 52 % 0.00 in
15:14 95.0 °F 75.7 °F 29.94 in South 5.0 mph 13.0 mph 54 % 0.00 in
15:19 94.8 °F 74.5 °F 29.93 in SSE 10.0 mph 12.0 mph 52 % 0.00 in
15:24 94.6 °F 74.8 °F 29.93 in SSE 6.0 mph 13.0 mph 53 % 0.00 in
15:29 94.8 °F 74.5 °F 29.93 in SE 5.0 mph 13.0 mph 52 % 0.00 in
15:34 95.0 °F 73.9 °F 29.93 in South 8.0 mph 13.0 mph 51 % 0.00 in
15:39 95.0 °F 73.4 °F 29.93 in SSE 2.0 mph 11.0 mph 50 % 0.00 in
15:44 94.6 °F 73.0 °F 29.93 in SSE 6.0 mph 9.0 mph 50 % 0.00 in
15:49 94.6 °F 72.5 °F 29.92 in SSE 3.0 mph 11.0 mph 49 % 0.00 in
15:54 94.6 °F 72.0 °F 29.92 in South 5.0 mph 11.0 mph 48 % 0.00 in
15:59 94.6 °F 71.2 °F 29.92 in South 5.0 mph 11.0 mph 47 % 0.00 in
16:04 94.6 °F 70.7 °F 29.92 in South 6.0 mph 10.0 mph 46 % 0.00 in
16:09 94.6 °F 71.2 °F 29.92 in South 3.0 mph 10.0 mph 47 % 0.00 in
16:14 94.5 °F 71.1 °F 29.92 in SSW 8.0 mph 11.0 mph 47 % 0.00 in
16:20 94.5 °F 72.3 °F 29.92 in SE 5.0 mph 11.0 mph 49 % 0.00 in
16:25 94.3 °F 72.1 °F 29.92 in SSE 4.0 mph 11.0 mph 49 % 0.00 in
16:30 94.3 °F 71.6 °F 29.92 in SSE 7.0 mph 11.0 mph 48 % 0.00 in
16:35 94.5 °F 72.3 °F 29.92 in SE 4.0 mph 11.0 mph 49 % 0.00 in
16:40 94.5 °F 71.8 °F 29.92 in SSW 7.0 mph 8.0 mph 48 % 0.00 in
16:45 94.6 °F 73.0 °F 29.91 in SSE 7.0 mph 8.0 mph 50 % 0.00 in
16:50 94.5 °F 72.3 °F 29.92 in SSW 4.0 mph 10.0 mph 49 % 0.00 in
16:55 94.6 °F 71.2 °F 29.92 in SSW 3.0 mph 11.0 mph 47 % 0.00 in
17:00 94.8 °F 72.7 °F 29.92 in SSE 2.0 mph 11.0 mph 49 % 0.00 in
17:05 95.0 °F 72.9 °F 29.92 in SSE 4.0 mph 10.0 mph 49 % 0.00 in
17:10 95.0 °F 70.9 °F 29.92 in SE 6.0 mph 10.0 mph 46 % 0.00 in
17:15 95.2 °F 70.5 °F 29.92 in SW 5.0 mph 10.0 mph 45 % 0.00 in
17:20 94.8 °F 70.2 °F 29.92 in South 8.0 mph 10.0 mph 45 % 0.00 in
17:25 94.6 °F 70.0 °F 29.92 in SSE 5.0 mph 11.0 mph 45 % 0.00 in
17:30 94.5 °F 69.3 °F 29.91 in ESE 6.0 mph 11.0 mph 44 % 0.00 in
17:35 94.6 °F 68.7 °F 29.92 in SSE 6.0 mph 11.0 mph 43 % 0.00 in
17:40 94.6 °F 69.3 °F 29.92 in ESE 8.0 mph 12.0 mph 44 % 0.00 in
17:45 94.6 °F 70.0 °F 29.92 in SSE 2.0 mph 12.0 mph 45 % 0.00 in
17:50 94.8 °F 68.9 °F 29.93 in South 3.0 mph 12.0 mph 43 % 0.00 in
17:55 94.5 °F 68.5 °F 29.92 in SSW 2.0 mph 10.0 mph 43 % 0.00 in
18:00 94.3 °F 68.4 °F 29.93 in SSE 5.0 mph 10.0 mph 43 % 0.00 in
18:05 94.1 °F 68.2 °F 29.93 in SSW 3.0 mph 9.0 mph 43 % 0.00 in
18:10 94.3 °F 69.1 °F 29.93 in WSW 3.0 mph 8.0 mph 44 % 0.00 in
18:15 94.3 °F 69.6 °F 29.92 in SSE 2.0 mph 7.0 mph 45 % 0.00 in
18:20 94.3 °F 70.3 °F 29.92 in South 3.0 mph 7.0 mph 46 % 0.00 in
18:25 94.3 °F 70.9 °F 29.92 in SSW 2.0 mph 7.0 mph 47 % 0.00 in
18:30 94.1 °F 70.7 °F 29.92 in South 4.0 mph 7.0 mph 47 % 0.00 in
18:35 94.1 °F 72.0 °F 29.92 in SSE 4.0 mph 10.0 mph 49 % 0.00 in
18:40 93.7 °F 72.3 °F 29.93 in SSE 2.0 mph 10.0 mph 50 % 0.00 in
18:45 93.4 °F 72.5 °F 29.93 in SW 4.0 mph 10.0 mph 51 % 0.00 in
18:50 93.0 °F 70.3 °F 29.93 in South 5.0 mph 11.0 mph 48 % 0.00 in
18:55 92.8 °F 71.4 °F 29.93 in SSW 3.0 mph 11.0 mph 50 % 0.00 in
19:00 92.7 °F 71.2 °F 29.93 in ESE 3.0 mph 11.0 mph 50 % 0.00 in
19:05 92.5 °F 71.1 °F 29.93 in SSE 6.0 mph 9.0 mph 50 % 0.00 in
19:10 92.1 °F 72.0 °F 29.93 in SSW 3.0 mph 11.0 mph 52 % 0.00 in
19:15 91.9 °F 71.8 °F 29.93 in South 5.0 mph 11.0 mph 52 % 0.00 in
19:20 91.4 °F 71.8 °F 29.93 in SSW 4.0 mph 11.0 mph 53 % 0.00 in
19:25 91.0 °F 72.1 °F 29.93 in South 4.0 mph 9.0 mph 54 % 0.00 in
19:30 90.7 °F 71.8 °F 29.93 in South 4.0 mph 9.0 mph 54 % 0.00 in
19:35 90.1 °F 71.8 °F 29.93 in SSW 3.0 mph 8.0 mph 55 % 0.00 in
19:40 90.0 °F 71.1 °F 29.93 in SE 3.0 mph 9.0 mph 54 % 0.00 in
19:45 89.8 °F 70.9 °F 29.93 in SSE 2.0 mph 9.0 mph 54 % 0.00 in
19:50 89.6 °F 71.8 °F 29.94 in South 3.0 mph 10.0 mph 56 % 0.00 in
19:55 89.4 °F 72.7 °F 29.94 in South 6.0 mph 10.0 mph 58 % 0.00 in
20:00 89.1 °F 73.4 °F 29.94 in SE 5.0 mph 10.0 mph 60 % 0.00 in
20:05 88.9 °F 73.8 °F 29.94 in SE 4.0 mph 9.0 mph 61 % 0.00 in
20:10 88.5 °F 74.3 °F 29.94 in SSE 6.0 mph 9.0 mph 63 % 0.00 in
20:15 88.3 °F 74.7 °F 29.94 in SSE 6.0 mph 9.0 mph 64 % 0.00 in
20:20 88.0 °F 75.2 °F 29.94 in SE 5.0 mph 9.0 mph 66 % 0.00 in
20:25 87.6 °F 74.8 °F 29.94 in SE 4.0 mph 10.0 mph 66 % 0.00 in
20:30 87.3 °F 75.0 °F 29.94 in South 9.0 mph 10.0 mph 67 % 0.00 in
20:35 87.1 °F 74.8 °F 29.94 in SE 4.0 mph 10.0 mph 67 % 0.00 in
20:36 87.1 °F 74.8 °F 29.94 in South 3.0 mph 10.0 mph 67 % 0.00 in
20:41 86.7 °F 74.5 °F 29.95 in SSE 6.0 mph 9.0 mph 67 % 0.00 in
20:46 86.5 °F 74.3 °F 29.95 in SSE 5.0 mph 9.0 mph 67 % 0.00 in
20:51 86.4 °F 74.1 °F 29.95 in SSE 5.0 mph 9.0 mph 67 % 0.00 in
20:56 86.2 °F 74.3 °F 29.95 in SE 4.0 mph 8.0 mph 68 % 0.00 in
21:01 86.0 °F 74.1 °F 29.95 in South 4.0 mph 8.0 mph 68 % 0.00 in
21:06 85.8 °F 73.9 °F 29.96 in SSW 7.0 mph 8.0 mph 68 % 0.00 in
21:11 85.6 °F 74.3 °F 29.96 in SSE 6.0 mph 9.0 mph 69 % 0.00 in
21:16 85.5 °F 74.5 °F 29.96 in SSW 3.0 mph 10.0 mph 70 % 0.00 in
21:21 85.3 °F 74.3 °F 29.96 in South 4.0 mph 10.0 mph 70 % 0.00 in
21:26 85.1 °F 74.7 °F 29.96 in South 5.0 mph 10.0 mph 71 % 0.00 in
21:31 84.9 °F 74.5 °F 29.96 in SSE 3.0 mph 7.0 mph 71 % 0.00 in
21:36 84.7 °F 74.7 °F 29.96 in South 4.0 mph 9.0 mph 72 % 0.00 in
21:41 84.6 °F 74.5 °F 29.96 in South 3.0 mph 9.0 mph 72 % 0.00 in
21:46 84.4 °F 74.8 °F 29.97 in ESE 7.0 mph 10.0 mph 73 % 0.00 in
21:51 84.4 °F 74.8 °F 29.97 in South 3.0 mph 10.0 mph 73 % 0.00 in
21:56 84.0 °F 74.5 °F 29.97 in SSE 2.0 mph 10.0 mph 73 % 0.00 in
22:01 84.0 °F 74.8 °F 29.97 in SSE 3.0 mph 9.0 mph 74 % 0.00 in
22:06 84.0 °F 74.8 °F 29.98 in South 2.0 mph 7.0 mph 74 % 0.00 in
22:11 83.8 °F 75.0 °F 29.98 in South 2.0 mph 7.0 mph 75 % 0.00 in
22:16 83.7 °F 74.8 °F 29.98 in SSE 2.0 mph 7.0 mph 75 % 0.00 in
22:21 83.5 °F 75.0 °F 29.99 in SSE 3.0 mph 6.0 mph 76 % 0.00 in
22:26 83.5 °F 75.0 °F 29.99 in South 2.0 mph 6.0 mph 76 % 0.00 in
22:31 83.5 °F 75.6 °F 29.99 in SSE 2.0 mph 6.0 mph 77 % 0.00 in
22:36 83.1 °F 75.2 °F 29.99 in South 2.0 mph 5.0 mph 77 % 0.00 in
22:41 83.1 °F 75.6 °F 29.99 in SE 2.0 mph 7.0 mph 78 % 0.00 in
22:46 83.1 °F 75.6 °F 29.99 in SE 2.0 mph 8.0 mph 78 % 0.00 in
22:51 83.1 °F 75.6 °F 29.99 in South 8.0 mph 9.0 mph 78 % 0.00 in
22:56 83.1 °F 75.9 °F 29.99 in SE 3.0 mph 10.0 mph 79 % 0.00 in
23:01 83.1 °F 75.9 °F 30.00 in South 2.0 mph 10.0 mph 79 % 0.00 in
23:06 82.9 °F 75.7 °F 29.99 in South 3.0 mph 10.0 mph 79 % 0.00 in
23:11 82.9 °F 76.1 °F 30.00 in SSW 3.0 mph 8.0 mph 80 % 0.00 in
23:16 82.9 °F 76.1 °F 30.00 in SSE 2.0 mph 7.0 mph 80 % 0.00 in
23:21 82.8 °F 75.9 °F 29.99 in SSE 2.0 mph 6.0 mph 80 % 0.00 in
23:26 82.8 °F 76.3 °F 30.00 in SE 2.0 mph 6.0 mph 81 % 0.00 in
23:31 82.8 °F 76.3 °F 30.00 in SE 2.0 mph 5.0 mph 81 % 0.00 in
23:36 82.6 °F 76.1 °F 30.00 in SSE 3.0 mph 7.0 mph 81 % 0.00 in
23:41 82.6 °F 76.1 °F 30.00 in SSE 3.0 mph 7.0 mph 81 % 0.00 in
23:46 82.4 °F 76.3 °F 30.00 in South 3.0 mph 7.0 mph 82 % 0.00 in
23:51 82.4 °F 76.3 °F 30.01 in SE 2.0 mph 6.0 mph 82 % 0.00 in
23:56 82.2 °F 76.1 °F 30.01 in South 3.0 mph 6.0 mph 82 % 0.00 in
Spring, Texas: Villages of Bridgestone
Compliments of Weather Underground - 2.75 mb

Script developed by  Jim McMurry - jmcmurry@mwt.net Adapted for the template by  Wim van der Kuil - Leuven-Template.eu

You find our weather info also at:

UK Metoffice

WeatherCloud

Weather Underground

Mid-South Weather Network

AWEKAS

Citizen Weather Observer Program (CWOP)

HAMweather, WeatherForYou, PWS Weather

Equipment we use:

Weather-station
Davis Vantage Vue

Weather-program
Meteohub

Weather-server
Debian 7.9 x86 (Guest)

Provider
DreamHost

Davis Vantage Vue

Meteohub

Debian 7.9 x86 (Guest)

DreamHost